Time;durP1;ratioP1;P1;durP2;ratioP2;P2;SDS_P1;SDS_P2;PMS_P1;PMS_P2;Temp;Humidity;BMP_temperature;BMP_pressure;BME280_temperature;BME280_humidity;BME280_pressure;Samples;Min_cycle;Max_cycle;Signal;HPM_P1;HPM_P2
2021/11/27 00:00:24;;;;;;;0.20;0.10;;;;;;;4.14;100.00;97450.81;5053892;28;20528;-48
2021/11/27 00:02:51;;;;;;;0.20;0.10;;;;;;;4.05;100.00;97435.47;5046163;28;20495;-48
2021/11/27 00:05:18;;;;;;;0.20;0.10;;;;;;;4.11;100.00;97434.31;5048118;28;20446;-48
2021/11/27 00:07:45;;;;;;;0.20;0.10;;;;;;;4.23;100.00;97431.09;5044155;28;20882;-48
2021/11/27 00:10:15;;;;;;;0.20;0.10;;;;;;;4.35;100.00;97434.91;5041007;28;20514;-48
2021/11/27 00:12:42;;;;;;;0.20;0.10;;;;;;;4.26;100.00;97425.72;5044707;28;20449;-47
2021/11/27 00:15:09;;;;;;;0.20;0.10;;;;;;;4.33;100.00;97424.47;5047734;28;20956;-48
2021/11/27 00:17:37;;;;;;;0.20;0.10;;;;;;;4.31;100.00;97426.31;5044785;28;21026;-48
2021/11/27 00:20:08;;;;;;;0.20;0.10;;;;;;;4.31;100.00;97426.31;5041077;28;20463;-48
2021/11/27 00:22:34;;;;;;;0.20;0.10;;;;;;;4.38;100.00;97426.84;5043323;28;20491;-48
2021/11/27 00:25:02;;;;;;;0.20;0.20;;;;;;;4.42;100.00;97426.66;5047476;28;20452;-47
2021/11/27 00:27:29;;;;;;;0.20;0.10;;;;;;;4.43;100.00;97428.34;5045916;28;20447;-48
2021/11/27 00:29:55;;;;;;;0.20;0.10;;;;;;;4.26;100.00;97414.34;5040697;28;20525;-48
2021/11/27 00:32:22;;;;;;;0.20;0.10;;;;;;;4.33;100.00;97418.34;5042284;28;20862;-48
2021/11/27 00:34:49;;;;;;;0.20;0.10;;;;;;;4.41;100.00;97410.94;5046297;28;20870;-49
2021/11/27 00:37:17;;;;;;;0.83;0.83;;;;;;;4.45;100.00;97412.47;5045107;28;20991;-48
2021/11/27 00:39:44;;;;;;;0.20;0.10;;;;;;;4.45;100.00;97415.97;5047865;28;20509;-47
2021/11/27 00:42:11;;;;;;;0.20;0.10;;;;;;;4.36;100.00;97424.31;5045855;28;20487;-49
2021/11/27 00:44:38;;;;;;;0.20;0.10;;;;;;;4.49;100.00;97411.41;5047462;28;20520;-48
2021/11/27 00:47:04;;;;;;;0.20;0.20;;;;;;;4.70;100.00;97414.72;5042015;28;20455;-48
2021/11/27 00:49:32;;;;;;;0.20;0.10;;;;;;;4.57;100.00;97411.88;5040423;28;20467;-47
2021/11/27 00:55:46;;;;;;;0.20;0.10;;;;;;;4.54;100.00;97408.56;5025171;28;20455;-48
2021/11/27 00:58:13;;;;;;;0.20;0.10;;;;;;;4.45;100.00;97402.81;5046314;28;20513;-48
2021/11/27 01:00:45;;;;;;;0.20;0.10;;;;;;;4.57;100.00;97398.72;5046998;28;20470;-48
2021/11/27 01:03:13;;;;;;;3.10;0.73;;;;;;;4.54;100.00;97401.50;5039520;28;20488;-48
2021/11/27 01:05:41;;;;;;;0.20;0.10;;;;;;;4.57;100.00;97405.75;5027837;28;20832;-48
2021/11/27 01:08:08;;;;;;;0.20;0.10;;;;;;;4.65;100.00;97401.78;5033565;28;21007;-48
2021/11/27 01:10:41;;;;;;;0.20;0.10;;;;;;;4.55;100.00;97400.59;5033610;28;20471;-47
2021/11/27 01:13:08;;;;;;;0.20;0.20;;;;;;;4.62;100.00;97396.69;5042419;28;20513;-48
2021/11/27 01:15:35;;;;;;;0.20;0.10;;;;;;;4.68;100.00;97387.66;5039695;28;20486;-48
2021/11/27 01:18:04;;;;;;;0.20;0.10;;;;;;;4.55;100.00;97390.06;5044453;28;20469;-48
2021/11/27 01:20:37;;;;;;;0.20;0.10;;;;;;;4.67;100.00;97386.81;5046472;28;20494;-48
2021/11/27 01:23:04;;;;;;;0.20;0.10;;;;;;;4.76;100.00;97388.09;5015789;28;21004;-48
2021/11/27 01:25:32;;;;;;;0.20;0.10;;;;;;;4.89;100.00;97385.66;5033284;28;20448;-47
2021/11/27 01:27:58;;;;;;;0.20;0.10;;;;;;;4.80;100.00;97381.75;5033196;28;20498;-48
2021/11/27 01:30:25;;;;;;;0.20;0.10;;;;;;;4.80;100.00;97368.59;5033333;28;20595;-48
2021/11/27 01:32:52;;;;;;;0.20;0.10;;;;;;;4.84;100.00;97369.28;5044425;28;21043;-48
2021/11/27 01:35:21;;;;;;;0.20;0.10;;;;;;;4.83;100.00;97375.47;5022502;28;20447;-49
2021/11/27 01:37:48;;;;;;;0.20;0.10;;;;;;;4.88;100.00;97374.28;5040780;28;20525;-48
2021/11/27 01:40:18;;;;;;;0.20;0.10;;;;;;;4.89;100.00;97373.34;5051669;28;20486;-49
2021/11/27 01:42:46;;;;;;;0.20;0.20;;;;;;;4.89;100.00;97373.34;5027403;28;20492;-48
2021/11/27 01:45:14;;;;;;;0.20;0.10;;;;;;;4.92;100.00;97365.28;5013194;28;20938;-49
2021/11/27 01:47:46;;;;;;;0.20;0.10;;;;;;;4.93;100.00;97360.88;5028864;28;20510;-48
2021/11/27 01:50:13;;;;;;;0.20;0.10;;;;;;;4.97;100.00;97368.56;5033040;28;20503;-48
2021/11/27 01:52:40;;;;;;;0.20;0.10;;;;;;;4.89;100.00;97368.09;5046004;28;20469;-48
2021/11/27 01:55:08;;;;;;;0.20;0.10;;;;;;;4.73;100.00;97365.41;5040375;28;20450;-48
2021/11/27 01:57:35;;;;;;;0.20;0.10;;;;;;;4.79;100.00;97368.66;5039547;28;20451;-48
2021/11/27 02:00:06;;;;;;;0.20;0.10;;;;;;;4.89;100.00;97361.97;5044374;28;20480;-48
2021/11/27 02:02:33;;;;;;;0.20;0.10;;;;;;;4.92;100.00;97362.66;5043728;28;20497;-48
2021/11/27 02:05:00;;;;;;;0.20;0.10;;;;;;;4.94;100.00;97358.19;5022367;28;20479;-48
2021/11/27 02:07:27;;;;;;;0.20;0.10;;;;;;;4.82;100.00;97356.19;5032540;28;20444;-48
2021/11/27 02:09:54;;;;;;;0.20;0.10;;;;;;;4.77;100.00;97358.22;5032589;28;20578;-47
2021/11/27 02:12:21;;;;;;;0.20;0.10;;;;;;;4.72;100.00;97345.31;5032715;28;20490;-48
2021/11/27 02:14:47;;;;;;;0.20;0.10;;;;;;;4.73;100.00;97348.78;5041844;28;20451;-47
2021/11/27 02:17:18;;;;;;;0.50;0.50;;;;;;;4.71;100.00;97348.03;5038737;28;20917;-48
2021/11/27 02:19:44;;;;;;;0.27;0.20;;;;;;;4.72;100.00;97341.81;5025159;28;20566;-48
2021/11/27 02:22:11;;;;;;;0.20;0.10;;;;;;;4.72;100.00;97336.56;5042458;28;20466;-48
2021/11/27 02:24:38;;;;;;;0.20;0.10;;;;;;;4.88;100.00;97347.13;5028032;28;20858;-48
2021/11/27 02:27:05;;;;;;;0.20;0.10;;;;;;;4.75;100.00;97342.50;5032554;28;20463;-48
2021/11/27 02:29:32;;;;;;;0.20;0.10;;;;;;;4.72;100.00;97347.94;5032333;28;20817;-48
2021/11/27 02:32:00;;;;;;;0.20;0.20;;;;;;;4.64;100.00;97350.09;5036034;28;20446;-47
2021/11/27 02:34:27;;;;;;;0.20;0.10;;;;;;;4.73;100.00;97347.00;5041675;28;20444;-48
2021/11/27 02:36:59;;;;;;;0.20;0.10;;;;;;;4.81;100.00;97346.63;5045428;28;20521;-48
2021/11/27 02:39:26;;;;;;;0.20;0.10;;;;;;;4.69;100.00;97342.84;5036990;28;20485;-48
2021/11/27 02:41:54;;;;;;;0.20;0.10;;;;;;;4.76;100.00;97346.84;5038277;28;20832;-47
2021/11/27 02:44:26;;;;;;;0.20;0.10;;;;;;;4.76;100.00;97338.09;5026235;28;21019;-48
2021/11/27 02:46:53;;;;;;;0.20;0.10;;;;;;;4.74;100.00;97330.28;5033398;28;21007;-48
2021/11/27 02:49:21;;;;;;;0.20;0.10;;;;;;;5.00;100.00;97333.31;5032025;28;20478;-48
2021/11/27 02:51:48;;;;;;;0.20;0.10;;;;;;;4.87;100.00;97329.63;5040693;28;20447;-47
2021/11/27 02:54:15;;;;;;;0.20;0.10;;;;;;;5.02;100.00;97327.03;5038703;28;20493;-48
2021/11/27 02:56:45;;;;;;;0.20;0.10;;;;;;;5.13;100.00;97325.59;5043262;28;20476;-48
2021/11/27 02:59:18;;;;;;;0.20;0.10;;;;;;;4.89;100.00;97322.50;5048248;28;20467;-48
2021/11/27 03:01:48;;;;;;;0.20;0.10;;;;;;;4.97;100.00;97317.69;5046194;28;20478;-47
2021/11/27 03:04:15;;;;;;;0.20;0.10;;;;;;;4.92;100.00;97315.28;5021537;28;20484;-48
2021/11/27 03:06:43;;;;;;;0.20;0.10;;;;;;;4.92;100.00;97323.19;5026875;28;20960;-48
2021/11/27 03:09:16;;;;;;;0.20;0.10;;;;;;;4.90;100.00;97321.56;5036005;28;20490;-48
2021/11/27 03:11:45;;;;;;;0.20;0.20;;;;;;;4.81;100.00;97325.56;5036380;28;20502;-48
2021/11/27 03:14:12;;;;;;;0.20;0.10;;;;;;;4.88;100.00;97326.06;5049175;28;20941;-49
2021/11/27 03:16:38;;;;;;;0.20;0.13;;;;;;;4.83;100.00;97322.84;5048035;28;20454;-48
2021/11/27 03:19:24;;;;;;;0.20;0.10;;;;;;;4.87;100.00;97319.97;5047457;28;20570;-47
2021/11/27 03:21:51;;;;;;;0.20;0.10;;;;;;;4.89;100.00;97319.88;5047140;28;20451;-48
2021/11/27 03:24:18;;;;;;;0.20;0.10;;;;;;;4.98;100.00;97322.88;5028503;28;20490;-49
2021/11/27 03:26:45;;;;;;;0.20;0.10;;;;;;;5.07;100.00;97324.13;5035584;28;20911;-48
2021/11/27 03:29:12;;;;;;;0.20;0.10;;;;;;;4.95;100.00;97328.31;5035879;28;20547;-48
2021/11/27 03:31:39;;;;;;;0.20;0.10;;;;;;;4.94;100.00;97316.09;5038160;28;20621;-48
2021/11/27 03:34:06;;;;;;;0.20;0.10;;;;;;;5.01;100.00;97319.22;5046346;28;20454;-47
2021/11/27 03:36:33;;;;;;;0.20;0.10;;;;;;;4.99;100.00;97318.47;5048788;28;20451;-47
2021/11/27 03:39:00;;;;;;;0.20;0.10;;;;;;;4.93;100.00;97318.75;5040675;28;20498;-47
2021/11/27 03:41:26;;;;;;;0.20;0.10;;;;;;;4.98;100.00;97319.38;5030988;28;20444;-47
2021/11/27 03:43:53;;;;;;;0.20;0.10;;;;;;;5.01;100.00;97319.22;5035557;28;20490;-48
2021/11/27 03:46:20;;;;;;;0.20;0.10;;;;;;;5.04;100.00;97329.56;5036274;28;20451;-47
2021/11/27 03:48:47;;;;;;;0.20;0.10;;;;;;;4.88;100.00;97323.44;5035112;28;20447;-48
2021/11/27 03:51:18;;;;;;;0.20;0.10;;;;;;;4.98;100.00;97325.50;5035289;28;20451;-47
2021/11/27 03:53:46;;;;;;;0.20;0.20;;;;;;;5.05;100.00;97328.63;5038073;28;20447;-48
2021/11/27 03:56:16;;;;;;;0.20;0.10;;;;;;;4.98;100.00;97330.75;5048226;28;20455;-48
2021/11/27 03:58:43;;;;;;;0.20;0.20;;;;;;;5.00;100.00;97343.84;5047068;28;20481;-48
2021/11/27 04:01:12;;;;;;;0.20;0.10;;;;;;;5.17;100.00;97341.13;5041521;28;20530;-48
2021/11/27 04:03:42;;;;;;;0.20;0.10;;;;;;;5.16;100.00;97334.19;5029837;28;20484;-48
2021/11/27 04:06:10;;;;;;;0.20;0.10;;;;;;;5.12;100.00;97348.44;5034627;28;20474;-48
2021/11/27 04:08:36;;;;;;;0.60;0.57;;;;;;;4.98;100.00;97343.94;5035106;28;20452;-48
2021/11/27 04:11:03;;;;;;;0.20;0.20;;;;;;;4.95;100.00;97343.25;5034718;28;20993;-47
2021/11/27 04:13:31;;;;;;;0.20;0.20;;;;;;;4.98;100.00;97346.56;5048162;28;20443;-49
2021/11/27 04:15:58;;;;;;;0.20;0.10;;;;;;;5.03;100.00;97341.03;5041688;28;20504;-47
2021/11/27 04:18:25;;;;;;;0.20;0.20;;;;;;;5.18;100.00;97345.47;5041124;28;20993;-48
2021/11/27 04:20:52;;;;;;;0.20;0.10;;;;;;;5.13;100.00;97349.28;5047006;28;20980;-47
2021/11/27 04:23:19;;;;;;;0.20;0.10;;;;;;;5.06;100.00;97341.72;5034314;28;20569;-47
2021/11/27 04:25:46;;;;;;;0.20;0.20;;;;;;;5.12;100.00;97342.34;5034470;28;20961;-49
2021/11/27 04:28:13;;;;;;;0.20;0.13;;;;;;;5.16;100.00;97344.72;5016841;28;20448;-48
2021/11/27 04:30:41;;;;;;;0.20;0.10;;;;;;;5.23;100.00;97347.88;5034426;28;20824;-48
2021/11/27 04:33:08;;;;;;;0.20;0.20;;;;;;;5.15;100.00;97342.16;5047572;28;20446;-48
2021/11/27 04:35:36;;;;;;;0.70;0.70;;;;;;;5.13;100.00;97344.03;5042489;28;20443;-48
2021/11/27 04:38:03;;;;;;;0.20;0.10;;;;;;;5.21;100.00;97341.84;5040995;28;20505;-47
2021/11/27 04:40:31;;;;;;;0.20;0.10;;;;;;;5.34;100.00;97337.56;5061687;22;20535;-52
2021/11/27 04:42:58;;;;;;;0.20;0.20;;;;;;;5.31;100.00;97351.75;5021993;28;20953;-52
2021/11/27 04:45:25;;;;;;;0.20;0.10;;;;;;;5.22;100.00;97352.28;5014391;28;20460;-52
2021/11/27 04:47:52;;;;;;;0.20;0.10;;;;;;;5.27;100.00;97350.25;5016375;28;20604;-52
2021/11/27 04:50:19;;;;;;;0.20;0.10;;;;;;;5.28;100.00;97359.00;5014161;28;20527;-52
2021/11/27 04:52:48;;;;;;;0.20;0.10;;;;;;;5.35;100.00;97355.09;5017640;28;20448;-52
2021/11/27 04:55:17;;;;;;;0.20;0.10;;;;;;;5.26;100.00;97352.97;5034203;28;20455;-52
2021/11/27 04:57:44;;;;;;;0.20;0.13;;;;;;;5.29;100.00;97361.53;5035523;28;20459;-52
2021/11/27 05:00:18;;;;;;;0.20;0.20;;;;;;;5.31;100.00;97364.09;5022872;28;20472;-52
2021/11/27 05:02:44;;;;;;;0.20;0.10;;;;;;;5.57;100.00;97370.56;5032717;28;20517;-52
2021/11/27 05:05:11;;;;;;;0.20;0.10;;;;;;;5.22;100.00;97375.13;5034105;28;20567;-52
2021/11/27 05:07:37;;;;;;;0.20;0.10;;;;;;;5.30;100.00;97376.41;5033975;28;20483;-52
2021/11/27 05:10:05;;;;;;;0.67;0.67;;;;;;;5.22;100.00;97377.78;5033883;28;20553;-52
2021/11/27 05:12:32;;;;;;;0.30;0.20;;;;;;;5.29;100.00;97376.50;5027520;28;20452;-53
2021/11/27 05:14:58;;;;;;;0.20;0.10;;;;;;;5.28;100.00;97374.78;5026720;28;20823;-52
2021/11/27 05:17:25;;;;;;;0.20;0.10;;;;;;;5.31;100.00;97382.50;5020167;28;20964;-52
2021/11/27 05:19:52;;;;;;;0.20;0.10;;;;;;;5.28;100.00;97387.97;5021070;28;20890;-52
2021/11/27 05:22:18;;;;;;;0.20;0.10;;;;;;;5.26;100.00;97379.28;5032853;28;20458;-51
2021/11/27 05:24:45;;;;;;;0.20;0.10;;;;;;;5.25;100.00;97372.34;5020559;28;20519;-52
2021/11/27 05:27:14;;;;;;;0.20;0.10;;;;;;;5.10;100.00;97374.00;4996361;28;20456;-52
2021/11/27 05:29:41;;;;;;;0.20;0.20;;;;;;;5.24;100.00;97381.16;5013614;28;21004;-52
2021/11/27 05:32:20;;;;;;;0.20;0.10;;;;;;;5.24;100.00;97381.16;5020920;28;20452;-51
2021/11/27 05:34:48;;;;;;;0.20;0.10;;;;;;;5.23;100.00;97379.47;5020165;28;20452;-51
2021/11/27 05:37:16;;;;;;;0.20;0.10;;;;;;;5.25;100.00;97385.50;5024444;28;20515;-51
2021/11/27 05:39:44;;;;;;;0.20;0.10;;;;;;;5.17;100.00;97385.03;5014132;28;20486;-52
2021/11/27 05:42:13;;;;;;;0.20;0.10;;;;;;;5.16;100.00;97383.34;5033301;28;20958;-51
2021/11/27 05:44:40;;;;;;;0.20;0.10;;;;;;;5.13;100.00;97380.88;5013477;28;20519;-51
2021/11/27 05:47:07;;;;;;;0.20;0.10;;;;;;;5.26;100.00;97384.56;5015253;28;20480;-51
2021/11/27 05:49:34;;;;;;;0.20;0.10;;;;;;;5.25;100.00;97388.13;5013180;28;20504;-51
2021/11/27 05:52:00;;;;;;;0.20;0.10;;;;;;;5.10;100.00;97386.31;5013333;28;20449;-52
2021/11/27 05:54:27;;;;;;;0.20;0.10;;;;;;;5.19;100.00;97389.28;5030213;28;20440;-51
2021/11/27 05:56:55;;;;;;;0.20;0.10;;;;;;;5.21;100.00;97386.59;5022573;28;20488;-51
2021/11/27 05:59:22;;;;;;;0.20;0.20;;;;;;;5.21;100.00;97386.59;5026262;28;20456;-51
2021/11/27 06:01:48;;;;;;;0.20;0.10;;;;;;;5.29;100.00;97395.78;5006611;28;20451;-51
2021/11/27 06:04:15;;;;;;;0.20;0.10;;;;;;;5.14;100.00;97387.84;5033019;28;20487;-51
2021/11/27 06:06:42;;;;;;;0.20;0.10;;;;;;;5.20;100.00;97395.41;5032764;28;20451;-52
2021/11/27 06:09:08;;;;;;;0.20;0.10;;;;;;;5.25;100.00;97394.25;5032732;28;20458;-52
2021/11/27 06:11:35;;;;;;;0.20;0.10;;;;;;;5.23;100.00;97395.25;5032381;28;21070;-52
2021/11/27 06:14:02;;;;;;;0.20;0.20;;;;;;;5.22;100.00;97399.69;5019290;28;20802;-52
2021/11/27 06:16:33;;;;;;;0.20;0.10;;;;;;;5.21;100.00;97405.03;5021135;28;20506;-52
2021/11/27 06:19:00;;;;;;;0.20;0.10;;;;;;;5.10;100.00;97410.00;5026119;28;20453;-52
2021/11/27 06:21:26;;;;;;;0.20;0.20;;;;;;;5.14;100.00;97417.66;5024769;28;20498;-52
2021/11/27 06:23:56;;;;;;;0.20;0.10;;;;;;;5.13;100.00;97412.47;5026552;28;20543;-51
2021/11/27 06:26:24;;;;;;;0.20;0.10;;;;;;;5.06;100.00;97414.56;5012914;28;20456;-52
2021/11/27 06:28:51;;;;;;;0.20;0.10;;;;;;;4.98;100.00;97422.88;5012763;28;20464;-52
2021/11/27 06:31:17;;;;;;;0.20;0.10;;;;;;;5.06;100.00;97425.09;5012753;28;20472;-51
2021/11/27 06:33:44;;;;;;;0.20;0.13;;;;;;;5.08;100.00;97433.78;5019179;28;20982;-50
2021/11/27 06:36:15;;;;;;;0.20;0.10;;;;;;;4.98;100.00;97433.41;5018909;28;21012;-50
2021/11/27 06:38:42;;;;;;;0.20;0.10;;;;;;;4.90;100.00;97434.72;5026313;28;20515;-50
2021/11/27 06:41:08;;;;;;;0.20;0.10;;;;;;;4.76;100.00;97438.91;5044131;28;20525;-50
2021/11/27 06:43:35;;;;;;;0.20;0.10;;;;;;;4.83;100.00;97431.59;5012476;28;20527;-50
2021/11/27 06:46:02;;;;;;;0.20;0.10;;;;;;;4.79;100.00;97447.59;5014688;28;20460;-50
2021/11/27 06:48:29;;;;;;;0.20;0.13;;;;;;;4.74;100.00;97439.94;5012557;28;20535;-50
2021/11/27 06:50:56;;;;;;;0.20;0.10;;;;;;;4.81;100.00;97441.34;5012139;28;20534;-50
2021/11/27 06:53:24;;;;;;;0.20;0.10;;;;;;;4.90;100.00;97443.47;5021070;28;20459;-50
2021/11/27 06:55:50;;;;;;;0.20;0.10;;;;;;;4.95;100.00;97459.91;5030204;28;20456;-50
2021/11/27 06:58:17;;;;;;;0.20;0.10;;;;;;;5.04;100.00;97458.56;5020828;28;20475;-50
2021/11/27 07:00:44;;;;;;;0.20;0.20;;;;;;;4.96;100.00;97455.50;5018823;28;20512;-50
2021/11/27 07:03:10;;;;;;;0.20;0.20;;;;;;;4.98;100.00;97458.88;5032310;28;20447;-50
2021/11/27 07:05:37;;;;;;;0.20;0.10;;;;;;;5.03;100.00;97467.38;5032040;28;20495;-50
2021/11/27 07:08:04;;;;;;;0.20;0.10;;;;;;;4.98;100.00;97467.63;5032113;28;20458;-50
2021/11/27 07:10:30;;;;;;;0.20;0.10;;;;;;;4.95;100.00;97467.78;5031838;28;20479;-50
2021/11/27 07:12:59;;;;;;;0.20;0.13;;;;;;;4.93;100.00;97476.66;5022546;28;20992;-50
2021/11/27 07:15:25;;;;;;;0.20;0.10;;;;;;;4.98;100.00;97479.94;5025079;28;20501;-50
2021/11/27 07:17:52;;;;;;;0.20;0.10;;;;;;;5.10;100.00;97481.09;5021635;28;20451;-50
2021/11/27 07:20:19;;;;;;;0.20;0.10;;;;;;;5.02;100.00;97490.22;5018231;28;20817;-50
2021/11/27 07:22:45;;;;;;;0.20;0.10;;;;;;;5.05;100.00;97489.22;5014249;28;20828;-51
2021/11/27 07:25:12;;;;;;;0.20;0.10;;;;;;;5.12;100.00;97500.28;5014950;28;20488;-50
2021/11/27 07:27:39;;;;;;;0.20;0.10;;;;;;;5.11;100.00;97502.06;5012336;28;20828;-50
2021/11/27 07:30:06;;;;;;;0.20;0.10;;;;;;;5.07;100.00;97500.50;5012076;28;20980;-50
2021/11/27 07:32:34;;;;;;;0.20;0.13;;;;;;;5.11;100.00;97499.44;5022022;28;20444;-50
2021/11/27 07:35:01;;;;;;;0.20;0.10;;;;;;;5.08;100.00;97506.66;5018582;28;20455;-50
2021/11/27 07:37:27;;;;;;;0.20;0.10;;;;;;;5.04;100.00;97505.94;5021336;28;20455;-50
2021/11/27 07:39:55;;;;;;;0.20;0.10;;;;;;;5.01;100.00;97508.72;5033422;28;20486;-50
2021/11/27 07:42:21;;;;;;;0.20;0.17;;;;;;;5.08;100.00;97514.56;5029374;28;20452;-50
2021/11/27 07:44:48;;;;;;;0.20;0.20;;;;;;;5.08;100.00;97523.28;5013625;28;20495;-50
2021/11/27 07:47:15;;;;;;;0.20;0.10;;;;;;;5.08;100.00;97530.34;5018204;28;20460;-50
2021/11/27 07:49:41;;;;;;;0.20;0.10;;;;;;;5.09;100.00;97535.53;5015459;28;20498;-50
2021/11/27 07:52:08;;;;;;;0.20;0.10;;;;;;;5.09;100.00;97539.94;5026689;28;20830;-51
2021/11/27 07:54:35;;;;;;;0.20;0.20;;;;;;;5.21;100.00;97541.94;5037725;28;20811;-50
2021/11/27 07:57:01;;;;;;;0.20;0.10;;;;;;;5.23;100.00;97534.81;5024718;28;20518;-50
2021/11/27 07:59:29;;;;;;;0.20;0.10;;;;;;;5.22;100.00;97541.03;5028645;28;20449;-50
2021/11/27 08:01:56;;;;;;;0.20;0.10;;;;;;;5.25;100.00;97541.69;5026798;28;20518;-50
2021/11/27 08:04:23;;;;;;;0.20;0.10;;;;;;;5.21;100.00;97550.69;5034947;28;20585;-50
2021/11/27 08:06:49;;;;;;;0.20;0.10;;;;;;;5.23;100.00;97559.38;5035067;28;20447;-50
2021/11/27 08:09:16;;;;;;;0.20;0.20;;;;;;;5.24;100.00;97554.94;5017004;28;20448;-50
2021/11/27 08:11:42;;;;;;;0.20;0.10;;;;;;;5.24;100.00;97557.59;5034879;28;20452;-50
2021/11/27 08:14:09;;;;;;;0.20;0.10;;;;;;;5.20;100.00;97563.91;5021017;28;20546;-50
2021/11/27 08:16:36;;;;;;;0.20;0.10;;;;;;;5.19;100.00;97564.84;5022661;28;20448;-50
2021/11/27 08:19:02;;;;;;;0.20;0.10;;;;;;;5.39;100.00;97575.22;5028296;28;20480;-50
2021/11/27 08:21:29;;;;;;;0.20;0.10;;;;;;;5.51;100.00;97587.78;5026835;28;21050;-50
2021/11/27 08:23:57;;;;;;;0.20;0.10;;;;;;;5.51;100.00;97584.28;5028819;28;20456;-50
2021/11/27 08:26:23;;;;;;;0.20;0.10;;;;;;;5.37;100.00;97577.09;5014845;28;20465;-50
2021/11/27 08:28:50;;;;;;;0.20;0.10;;;;;;;5.29;100.00;97593.28;5020881;28;20913;-50
2021/11/27 08:31:17;;;;;;;0.20;0.10;;;;;;;5.29;100.00;97590.66;5034258;28;21021;-50
2021/11/27 08:33:44;;;;;;;0.20;0.10;;;;;;;5.19;100.00;97601.72;5009833;28;20457;-50
2021/11/27 08:36:10;;;;;;;0.20;0.10;;;;;;;5.35;100.00;97603.50;5027589;28;20447;-50
2021/11/27 08:38:37;;;;;;;0.20;0.10;;;;;;;5.29;100.00;97622.25;5003368;28;20455;-50
2021/11/27 08:41:07;;;;;;;0.20;0.10;;;;;;;5.15;100.00;97618.59;5047030;28;20525;-50
2021/11/27 08:43:38;;;;;;;0.20;0.10;;;;;;;5.41;100.00;97628.69;5014099;28;20472;-50
2021/11/27 08:46:05;;;;;;;0.20;0.20;;;;;;;5.15;100.00;97623.88;4999184;28;20559;-50
2021/11/27 08:48:36;;;;;;;0.20;0.10;;;;;;;5.13;100.00;97629.22;5014268;28;20972;-50
2021/11/27 08:51:09;;;;;;;0.20;0.20;;;;;;;5.17;100.00;97643.06;5014003;28;20957;-50
2021/11/27 08:53:37;;;;;;;0.20;0.10;;;;;;;5.27;100.00;97639.91;5024455;28;20474;-50
2021/11/27 08:56:08;;;;;;;0.20;0.10;;;;;;;5.12;100.00;97639.81;5029505;28;20476;-50
2021/11/27 08:58:36;;;;;;;0.20;0.13;;;;;;;5.01;100.00;97640.34;5025512;28;20447;-50
2021/11/27 09:01:04;;;;;;;0.20;0.10;;;;;;;5.13;100.00;97639.75;5020757;28;20907;-50
2021/11/27 09:03:32;;;;;;;0.20;0.10;;;;;;;5.21;100.00;97647.28;5033780;28;20447;-50
2021/11/27 09:06:00;;;;;;;0.20;0.20;;;;;;;5.38;100.00;97649.06;5033491;28;20841;-50
2021/11/27 09:08:28;;;;;;;0.20;0.10;;;;;;;5.48;100.00;97651.16;5033618;28;20455;-51
2021/11/27 09:10:55;;;;;;;0.20;0.10;;;;;;;5.52;100.00;97657.13;5033469;28;20987;-51
2021/11/27 09:13:22;;;;;;;0.20;0.10;;;;;;;5.75;100.00;97655.91;5021298;28;20452;-51
2021/11/27 09:15:49;;;;;;;0.20;0.20;;;;;;;5.64;100.00;97654.72;5027230;28;20444;-51
2021/11/27 09:18:16;;;;;;;0.20;0.10;;;;;;;5.78;100.00;97655.78;5009014;28;20490;-51
2021/11/27 09:20:42;;;;;;;0.20;0.10;;;;;;;5.83;100.00;97653.75;5019878;28;20471;-51
2021/11/27 09:23:09;;;;;;;0.20;0.10;;;;;;;5.77;100.00;97662.84;5033237;28;20452;-51
2021/11/27 09:25:36;;;;;;;0.20;0.10;;;;;;;5.81;100.00;97658.25;5013858;28;20488;-50
2021/11/27 09:28:02;;;;;;;0.20;0.10;;;;;;;6.04;100.00;97660.59;5013637;28;20489;-51
2021/11/27 09:30:30;;;;;;;0.20;0.10;;;;;;;5.83;100.00;97661.66;5013411;28;20464;-50
2021/11/27 09:32:57;;;;;;;0.20;0.20;;;;;;;5.85;100.00;97668.56;5009155;28;20574;-51
2021/11/27 09:35:24;;;;;;;0.20;0.13;;;;;;;6.06;100.00;97666.63;5019990;28;20490;-51
2021/11/27 09:37:52;;;;;;;0.20;0.20;;;;;;;5.97;100.00;97667.09;5019440;28;20581;-51
2021/11/27 09:40:18;;;;;;;0.20;0.10;;;;;;;5.98;100.00;97674.06;5039657;28;20520;-51
2021/11/27 09:42:52;;;;;;;0.20;0.10;;;;;;;5.89;100.00;97670.13;5022407;28;20445;-50
2021/11/27 09:45:27;;;;;;;0.20;0.20;;;;;;;6.18;100.00;97679.16;5013211;28;20489;-52
2021/11/27 09:47:55;;;;;;;0.20;0.10;;;;;;;6.47;100.00;97682.03;5016586;28;20445;-51
2021/11/27 09:50:24;;;;;;;0.20;0.20;;;;;;;6.29;100.00;97688.28;5012912;28;20476;-51
2021/11/27 09:52:53;;;;;;;0.20;0.10;;;;;;;6.23;100.00;97694.75;5016997;28;20494;-51
2021/11/27 09:55:20;;;;;;;0.20;0.10;;;;;;;6.77;100.00;97695.34;5032430;28;20454;-51
2021/11/27 09:57:48;;;;;;;0.20;0.20;;;;;;;6.45;100.00;97689.19;5018966;28;20448;-51
2021/11/27 10:00:17;;;;;;;0.20;0.10;;;;;;;6.54;100.00;97693.94;5020935;28;20844;-50
2021/11/27 10:02:47;;;;;;;0.20;0.20;;;;;;;6.45;100.00;97702.38;5013419;28;20502;-50
2021/11/27 10:05:16;;;;;;;0.20;0.20;;;;;;;6.60;100.00;97700.69;5032399;28;20495;-51
2021/11/27 10:07:42;;;;;;;0.83;0.60;;;;;;;6.41;100.00;97706.09;5031904;28;20493;-51
2021/11/27 10:10:11;;;;;;;0.20;0.20;;;;;;;6.39;100.00;97707.97;5032001;28;20476;-50
2021/11/27 10:12:41;;;;;;;0.20;0.17;;;;;;;6.57;100.00;97721.94;5025651;28;20502;-51
2021/11/27 10:15:10;;;;;;;0.20;0.10;;;;;;;6.57;100.00;97725.44;5007892;28;20462;-51
2021/11/27 10:17:37;;;;;;;0.20;0.20;;;;;;;6.99;99.00;97718.75;5019814;28;20948;-51
2021/11/27 10:20:05;;;;;;;0.20;0.20;;;;;;;6.60;100.00;97722.66;5018741;28;20472;-51
2021/11/27 10:22:37;;;;;;;0.20;0.10;;;;;;;6.60;100.00;97720.00;5032153;28;20462;-51
2021/11/27 10:25:25;;;;;;;0.20;0.20;;;;;;;6.36;100.00;97724.81;5015983;28;21024;-51
2021/11/27 10:28:17;;;;;;;0.30;0.20;;;;;;;6.45;100.00;97732.25;5012229;28;20445;-51
2021/11/27 10:30:55;;;;;;;0.20;0.10;;;;;;;6.57;100.00;97724.59;5012085;28;20523;-51
2021/11/27 10:33:22;;;;;;;0.20;0.10;;;;;;;6.87;99.93;97728.22;5026379;28;20503;-51
2021/11/27 10:36:05;;;;;;;0.20;0.20;;;;;;;6.50;99.51;97735.47;5022509;28;20452;-51
2021/11/27 10:38:42;;;;;;;0.20;0.20;;;;;;;6.71;99.94;97730.81;5018531;28;20447;-51
2021/11/27 10:41:11;;;;;;;0.20;0.20;;;;;;;6.90;100.00;97735.13;5050860;22;20502;-48
2021/11/27 10:43:57;;;;;;;0.20;0.17;;;;;;;7.22;99.40;97738.59;5031734;28;20832;-48
2021/11/27 10:46:29;;;;;;;0.20;0.13;;;;;;;7.30;98.68;97739.03;5032956;28;20545;-48
2021/11/27 10:48:56;;;;;;;0.30;0.20;;;;;;;6.95;98.06;97740.97;5031849;28;20451;-48
2021/11/27 10:51:23;;;;;;;0.20;0.20;;;;;;;7.18;97.41;97748.50;5031649;28;20468;-48
2021/11/27 10:53:59;;;;;;;0.20;0.20;;;;;;;7.11;98.47;97752.41;5044064;28;20546;-48
2021/11/27 10:56:47;;;;;;;0.20;0.20;;;;;;;6.83;100.00;97755.69;5038305;28;20521;-48
2021/11/27 10:59:16;;;;;;;0.30;0.20;;;;;;;7.03;99.97;97760.75;5020804;28;21005;-48
2021/11/27 11:02:15;;;;;;;0.30;0.20;;;;;;;7.12;97.95;97773.44;5041220;28;21054;-48
2021/11/27 11:04:42;;;;;;;0.20;0.10;;;;;;;6.91;97.69;97781.72;4999136;28;20491;-48
2021/11/27 11:07:25;;;;;;;0.20;0.20;;;;;;;6.92;97.34;97784.25;5031235;28;20448;-48
2021/11/27 11:09:59;;;;;;;0.20;0.20;;;;;;;6.59;98.89;97786.09;5031720;28;20479;-48
2021/11/27 11:12:56;;;;;;;0.20;0.10;;;;;;;6.28;100.00;97792.06;5019580;28;21025;-48
2021/11/27 11:15:25;;;;;;;0.20;0.10;;;;;;;6.42;99.11;97793.06;5020337;28;20467;-49
2021/11/27 11:18:09;;;;;;;0.20;0.20;;;;;;;6.48;99.36;97792.75;5042260;28;20486;-48
2021/11/27 11:20:40;;;;;;;0.20;0.20;;;;;;;6.31;98.62;97798.06;5048828;28;20898;-48
2021/11/27 11:23:10;;;;;;;0.20;0.10;;;;;;;6.39;96.86;97802.94;5038941;28;20438;-48
2021/11/27 11:25:55;;;;;;;0.20;0.10;;;;;;;6.31;97.52;97805.13;5036412;28;20568;-48
2021/11/27 11:28:24;;;;;;;0.20;0.10;;;;;;;6.27;94.41;97801.78;5035943;28;20525;-49
2021/11/27 11:30:55;;;;;;;0.20;0.10;;;;;;;6.28;93.33;97808.75;5036647;28;20506;-48
2021/11/27 11:33:23;;;;;;;0.20;0.10;;;;;;;6.53;93.00;97805.72;5050096;28;20943;-48
2021/11/27 11:35:50;;;;;;;0.20;0.10;;;;;;;6.77;93.15;97809.69;5046557;28;20504;-48
2021/11/27 11:38:19;;;;;;;0.20;0.20;;;;;;;6.56;91.36;97813.47;5041919;28;20835;-49
2021/11/27 11:40:47;;;;;;;0.20;0.20;;;;;;;6.47;92.91;97817.44;5066227;28;20993;-49
2021/11/27 11:43:15;;;;;;;0.20;0.20;;;;;;;6.36;93.54;97822.41;5021144;28;20459;-48